<?xml version="1.0" encoding="UTF-8" standalone="no" ?>
<gpx xmlns="http://www.topografix.com/GPX/1/1" xmlns:xsi="http://www.w3.org/2001/XMLSchema-instance" xsi:schemaLocation="http://www.topografix.com/GPX/1/1 http://www.topografix.com/GPX/1/1/gpx.xsd" version="1.1" creator="VisuGPX - https://www.visugpx.com">
  <metadata>
    <name>TOURETTES-SUR-LOUP PUY DE NAOURIE 17 KM 750 M OU 14 KM 680 M</name>
    <desc><![CDATA[TOURETTES-SUR-LOUP. PUY DE NAOURIE 
17 KM 750 M OU 14 KM 680 M
IGN 3643 ET. CANNES GRASSE]]></desc>
  </metadata>
  <trk>
    <name><![CDATA[--Tourrettes-sur-Loup-- OR-5482836:TOURETTES-SUR-LOUP.PUY DE NAOURIE 17 KM 750 M OU 14 KM ]]></name>
    <trkseg>
      <trkpt lat="43.71637" lon="7.05893">
        <ele>407</ele>
        <time>2015-11-23T21:42:34Z</time>
      </trkpt>
      <trkpt lat="43.71688" lon="7.05876">
        <ele>413</ele>
        <time>2015-11-23T21:44:34Z</time>
      </trkpt>
      <trkpt lat="43.71722" lon="7.06009">
        <ele>408</ele>
        <time>2015-11-23T21:46:34Z</time>
      </trkpt>
      <trkpt lat="43.71771" lon="7.0613">
        <ele>406</ele>
        <time>2015-11-23T21:48:34Z</time>
      </trkpt>
      <trkpt lat="43.71839" lon="7.06276">
        <ele>404</ele>
        <time>2015-11-23T21:50:34Z</time>
      </trkpt>
      <trkpt lat="43.71827" lon="7.06312">
        <ele>403</ele>
        <time>2015-11-23T21:52:34Z</time>
      </trkpt>
      <trkpt lat="43.71848" lon="7.06317">
        <ele>403</ele>
        <time>2015-11-23T21:54:34Z</time>
      </trkpt>
      <trkpt lat="43.71863" lon="7.06312">
        <ele>404</ele>
        <time>2015-11-23T21:56:34Z</time>
      </trkpt>
      <trkpt lat="43.71907" lon="7.06402">
        <ele>407</ele>
        <time>2015-11-23T21:58:34Z</time>
      </trkpt>
      <trkpt lat="43.71943" lon="7.06507">
        <ele>415</ele>
        <time>2015-11-23T22:00:34Z</time>
      </trkpt>
      <trkpt lat="43.7196" lon="7.06552">
        <ele>418</ele>
        <time>2015-11-23T22:02:34Z</time>
      </trkpt>
      <trkpt lat="43.7196" lon="7.06612">
        <ele>420</ele>
        <time>2015-11-23T22:04:34Z</time>
      </trkpt>
      <trkpt lat="43.72026" lon="7.06674">
        <ele>426</ele>
        <time>2015-11-23T22:06:34Z</time>
      </trkpt>
      <trkpt lat="43.72115" lon="7.06677">
        <ele>434</ele>
        <time>2015-11-23T22:08:34Z</time>
      </trkpt>
      <trkpt lat="43.72191" lon="7.06713">
        <ele>442</ele>
        <time>2015-11-23T22:10:34Z</time>
      </trkpt>
      <trkpt lat="43.72217" lon="7.06878">
        <ele>448</ele>
        <time>2015-11-23T22:12:34Z</time>
      </trkpt>
      <trkpt lat="43.72318" lon="7.0694">
        <ele>459</ele>
        <time>2015-11-23T22:14:34Z</time>
      </trkpt>
      <trkpt lat="43.72381" lon="7.06898">
        <ele>470</ele>
        <time>2015-11-23T22:16:34Z</time>
      </trkpt>
      <trkpt lat="43.72428" lon="7.06904">
        <ele>478</ele>
        <time>2015-11-23T22:18:34Z</time>
      </trkpt>
      <trkpt lat="43.72481" lon="7.07046">
        <ele>479</ele>
        <time>2015-11-23T22:20:34Z</time>
      </trkpt>
      <trkpt lat="43.72473" lon="7.0723">
        <ele>480</ele>
        <time>2015-11-23T22:22:34Z</time>
      </trkpt>
      <trkpt lat="43.72493" lon="7.07337">
        <ele>480</ele>
        <time>2015-11-23T22:24:34Z</time>
      </trkpt>
      <trkpt lat="43.72585" lon="7.07496">
        <ele>483</ele>
        <time>2015-11-23T22:26:34Z</time>
      </trkpt>
      <trkpt lat="43.7274" lon="7.07516">
        <ele>501</ele>
        <time>2015-11-23T22:28:34Z</time>
      </trkpt>
      <trkpt lat="43.72791" lon="7.07486">
        <ele>514</ele>
        <time>2015-11-23T22:30:34Z</time>
      </trkpt>
      <trkpt lat="43.72792" lon="7.07543">
        <ele>507</ele>
        <time>2015-11-23T22:32:34Z</time>
      </trkpt>
      <trkpt lat="43.7284" lon="7.07576">
        <ele>516</ele>
        <time>2015-11-23T22:34:34Z</time>
      </trkpt>
      <trkpt lat="43.72864" lon="7.07642">
        <ele>519</ele>
        <time>2015-11-23T22:36:34Z</time>
      </trkpt>
      <trkpt lat="43.72901" lon="7.07696">
        <ele>528</ele>
        <time>2015-11-23T22:38:34Z</time>
      </trkpt>
      <trkpt lat="43.72912" lon="7.07752">
        <ele>525</ele>
        <time>2015-11-23T22:40:34Z</time>
      </trkpt>
      <trkpt lat="43.72933" lon="7.07784">
        <ele>527</ele>
        <time>2015-11-23T22:42:34Z</time>
      </trkpt>
      <trkpt lat="43.72947" lon="7.07844">
        <ele>520</ele>
        <time>2015-11-23T22:44:34Z</time>
      </trkpt>
      <trkpt lat="43.72983" lon="7.07895">
        <ele>522</ele>
        <time>2015-11-23T22:46:34Z</time>
      </trkpt>
      <trkpt lat="43.73016" lon="7.07904">
        <ele>529</ele>
        <time>2015-11-23T22:48:34Z</time>
      </trkpt>
      <trkpt lat="43.73039" lon="7.07938">
        <ele>527</ele>
        <time>2015-11-23T22:50:34Z</time>
      </trkpt>
      <trkpt lat="43.73171" lon="7.0799">
        <ele>543</ele>
        <time>2015-11-23T22:52:34Z</time>
      </trkpt>
      <trkpt lat="43.73247" lon="7.07945">
        <ele>568</ele>
        <time>2015-11-23T22:54:34Z</time>
      </trkpt>
      <trkpt lat="43.73341" lon="7.07985">
        <ele>566</ele>
        <time>2015-11-23T22:56:34Z</time>
      </trkpt>
      <trkpt lat="43.73397" lon="7.07943">
        <ele>573</ele>
        <time>2015-11-23T22:58:34Z</time>
      </trkpt>
      <trkpt lat="43.73402" lon="7.07895">
        <ele>583</ele>
        <time>2015-11-23T23:00:34Z</time>
      </trkpt>
      <trkpt lat="43.73482" lon="7.07837">
        <ele>592</ele>
        <time>2015-11-23T23:02:34Z</time>
      </trkpt>
      <trkpt lat="43.73608" lon="7.07949">
        <ele>601</ele>
        <time>2015-11-23T23:04:34Z</time>
      </trkpt>
      <trkpt lat="43.73621" lon="7.07953">
        <ele>599</ele>
        <time>2015-11-23T23:06:34Z</time>
      </trkpt>
      <trkpt lat="43.7364" lon="7.07917">
        <ele>605</ele>
        <time>2015-11-23T23:08:34Z</time>
      </trkpt>
      <trkpt lat="43.73678" lon="7.07889">
        <ele>614</ele>
        <time>2015-11-23T23:10:34Z</time>
      </trkpt>
      <trkpt lat="43.73712" lon="7.07878">
        <ele>619</ele>
        <time>2015-11-23T23:12:34Z</time>
      </trkpt>
      <trkpt lat="43.73735" lon="7.07863">
        <ele>624</ele>
        <time>2015-11-23T23:14:34Z</time>
      </trkpt>
      <trkpt lat="43.73772" lon="7.07872">
        <ele>625</ele>
        <time>2015-11-23T23:16:34Z</time>
      </trkpt>
      <trkpt lat="43.73806" lon="7.079">
        <ele>622</ele>
        <time>2015-11-23T23:18:34Z</time>
      </trkpt>
      <trkpt lat="43.73907" lon="7.07934">
        <ele>620</ele>
        <time>2015-11-23T23:20:34Z</time>
      </trkpt>
      <trkpt lat="43.74075" lon="7.07921">
        <ele>621</ele>
        <time>2015-11-23T23:22:34Z</time>
      </trkpt>
      <trkpt lat="43.74126" lon="7.07882">
        <ele>624</ele>
        <time>2015-11-23T23:24:34Z</time>
      </trkpt>
      <trkpt lat="43.74146" lon="7.07846">
        <ele>628</ele>
        <time>2015-11-23T23:26:34Z</time>
      </trkpt>
      <trkpt lat="43.74206" lon="7.07829">
        <ele>628</ele>
        <time>2015-11-23T23:28:34Z</time>
      </trkpt>
      <trkpt lat="43.74233" lon="7.07784">
        <ele>634</ele>
        <time>2015-11-23T23:30:34Z</time>
      </trkpt>
      <trkpt lat="43.74248" lon="7.07771">
        <ele>634</ele>
        <time>2015-11-23T23:32:34Z</time>
      </trkpt>
      <trkpt lat="43.74262" lon="7.07794">
        <ele>634</ele>
        <time>2015-11-23T23:34:34Z</time>
      </trkpt>
      <trkpt lat="43.74292" lon="7.0781">
        <ele>639</ele>
        <time>2015-11-23T23:36:34Z</time>
      </trkpt>
      <trkpt lat="43.74287" lon="7.07786">
        <ele>641</ele>
        <time>2015-11-23T23:38:34Z</time>
      </trkpt>
      <trkpt lat="43.74304" lon="7.07782">
        <ele>645</ele>
        <time>2015-11-23T23:40:34Z</time>
      </trkpt>
      <trkpt lat="43.74292" lon="7.07758">
        <ele>644</ele>
        <time>2015-11-23T23:42:34Z</time>
      </trkpt>
      <trkpt lat="43.74329" lon="7.07764">
        <ele>652</ele>
        <time>2015-11-23T23:44:34Z</time>
      </trkpt>
      <trkpt lat="43.74358" lon="7.07803">
        <ele>656</ele>
        <time>2015-11-23T23:46:34Z</time>
      </trkpt>
      <trkpt lat="43.74395" lon="7.07786">
        <ele>669</ele>
        <time>2015-11-23T23:48:34Z</time>
      </trkpt>
      <trkpt lat="43.74383" lon="7.07707">
        <ele>678</ele>
        <time>2015-11-23T23:50:34Z</time>
      </trkpt>
      <trkpt lat="43.7436" lon="7.07694">
        <ele>672</ele>
        <time>2015-11-23T23:52:34Z</time>
      </trkpt>
      <trkpt lat="43.74352" lon="7.07619">
        <ele>678</ele>
        <time>2015-11-23T23:54:34Z</time>
      </trkpt>
      <trkpt lat="43.74346" lon="7.07543">
        <ele>682</ele>
        <time>2015-11-23T23:56:34Z</time>
      </trkpt>
      <trkpt lat="43.7436" lon="7.07494">
        <ele>693</ele>
        <time>2015-11-23T23:58:34Z</time>
      </trkpt>
      <trkpt lat="43.74364" lon="7.07436">
        <ele>699</ele>
        <time>2015-11-24T00:00:34Z</time>
      </trkpt>
      <trkpt lat="43.74386" lon="7.07292">
        <ele>721</ele>
        <time>2015-11-24T00:02:34Z</time>
      </trkpt>
      <trkpt lat="43.74406" lon="7.07187">
        <ele>741</ele>
        <time>2015-11-24T00:04:34Z</time>
      </trkpt>
      <trkpt lat="43.74397" lon="7.07119">
        <ele>750</ele>
        <time>2015-11-24T00:06:34Z</time>
      </trkpt>
      <trkpt lat="43.74405" lon="7.07082">
        <ele>758</ele>
        <time>2015-11-24T00:08:34Z</time>
      </trkpt>
      <trkpt lat="43.74392" lon="7.07043">
        <ele>759</ele>
        <time>2015-11-24T00:10:34Z</time>
      </trkpt>
      <trkpt lat="43.74386" lon="7.06998">
        <ele>762</ele>
        <time>2015-11-24T00:12:34Z</time>
      </trkpt>
      <trkpt lat="43.74377" lon="7.06958">
        <ele>763</ele>
        <time>2015-11-24T00:14:34Z</time>
      </trkpt>
      <trkpt lat="43.7438" lon="7.06887">
        <ele>768</ele>
        <time>2015-11-24T00:16:34Z</time>
      </trkpt>
      <trkpt lat="43.74389" lon="7.06782">
        <ele>772</ele>
        <time>2015-11-24T00:18:34Z</time>
      </trkpt>
      <trkpt lat="43.74453" lon="7.06659">
        <ele>790</ele>
        <time>2015-11-24T00:20:34Z</time>
      </trkpt>
      <trkpt lat="43.74482" lon="7.06591">
        <ele>798</ele>
        <time>2015-11-24T00:22:34Z</time>
      </trkpt>
      <trkpt lat="43.74572" lon="7.06503">
        <ele>813</ele>
        <time>2015-11-24T00:24:34Z</time>
      </trkpt>
      <trkpt lat="43.74634" lon="7.06417">
        <ele>817</ele>
        <time>2015-11-24T00:26:34Z</time>
      </trkpt>
      <trkpt lat="43.74721" lon="7.06402">
        <ele>836</ele>
        <time>2015-11-24T00:28:34Z</time>
      </trkpt>
      <trkpt lat="43.74769" lon="7.06361">
        <ele>848</ele>
        <time>2015-11-24T00:30:34Z</time>
      </trkpt>
      <trkpt lat="43.74766" lon="7.06338">
        <ele>847</ele>
        <time>2015-11-24T00:32:34Z</time>
      </trkpt>
      <trkpt lat="43.7478" lon="7.06327">
        <ele>852</ele>
        <time>2015-11-24T00:34:34Z</time>
      </trkpt>
      <trkpt lat="43.74758" lon="7.06301">
        <ele>854</ele>
        <time>2015-11-24T00:36:34Z</time>
      </trkpt>
      <trkpt lat="43.74788" lon="7.06282">
        <ele>863</ele>
        <time>2015-11-24T00:38:34Z</time>
      </trkpt>
      <trkpt lat="43.74761" lon="7.06267">
        <ele>863</ele>
        <time>2015-11-24T00:40:34Z</time>
      </trkpt>
      <trkpt lat="43.748" lon="7.06207">
        <ele>878</ele>
        <time>2015-11-24T00:42:34Z</time>
      </trkpt>
      <trkpt lat="43.74815" lon="7.06099">
        <ele>900</ele>
        <time>2015-11-24T00:44:34Z</time>
      </trkpt>
      <trkpt lat="43.74833" lon="7.06035">
        <ele>910</ele>
        <time>2015-11-24T00:46:34Z</time>
      </trkpt>
      <trkpt lat="43.7478" lon="7.06063">
        <ele>912</ele>
        <time>2015-11-24T00:48:34Z</time>
      </trkpt>
      <trkpt lat="43.74755" lon="7.06089">
        <ele>912</ele>
        <time>2015-11-24T00:50:34Z</time>
      </trkpt>
      <trkpt lat="43.74726" lon="7.0608">
        <ele>912</ele>
        <time>2015-11-24T00:52:34Z</time>
      </trkpt>
      <trkpt lat="43.74761" lon="7.06035">
        <ele>919</ele>
        <time>2015-11-24T00:54:34Z</time>
      </trkpt>
      <trkpt lat="43.74766" lon="7.05975">
        <ele>927</ele>
        <time>2015-11-24T00:56:34Z</time>
      </trkpt>
      <trkpt lat="43.74767" lon="7.05911">
        <ele>933</ele>
        <time>2015-11-24T00:58:34Z</time>
      </trkpt>
      <trkpt lat="43.74795" lon="7.0588">
        <ele>937</ele>
        <time>2015-11-24T01:00:34Z</time>
      </trkpt>
      <trkpt lat="43.74812" lon="7.05848">
        <ele>943</ele>
        <time>2015-11-24T01:02:34Z</time>
      </trkpt>
      <trkpt lat="43.74856" lon="7.05829">
        <ele>949</ele>
        <time>2015-11-24T01:04:34Z</time>
      </trkpt>
      <trkpt lat="43.74896" lon="7.05833">
        <ele>954</ele>
        <time>2015-11-24T01:06:34Z</time>
      </trkpt>
      <trkpt lat="43.7493" lon="7.0581">
        <ele>960</ele>
        <time>2015-11-24T01:08:34Z</time>
      </trkpt>
      <trkpt lat="43.74992" lon="7.057">
        <ele>968</ele>
        <time>2015-11-24T01:10:34Z</time>
      </trkpt>
      <trkpt lat="43.75031" lon="7.05685">
        <ele>970</ele>
        <time>2015-11-24T01:12:34Z</time>
      </trkpt>
      <trkpt lat="43.75062" lon="7.05632">
        <ele>971</ele>
        <time>2015-11-24T01:14:34Z</time>
      </trkpt>
      <trkpt lat="43.75118" lon="7.05582">
        <ele>968</ele>
        <time>2015-11-24T01:16:34Z</time>
      </trkpt>
      <trkpt lat="43.75077" lon="7.05546">
        <ele>971</ele>
        <time>2015-11-24T01:18:34Z</time>
      </trkpt>
      <trkpt lat="43.7507" lon="7.05516">
        <ele>971</ele>
        <time>2015-11-24T01:20:34Z</time>
      </trkpt>
      <trkpt lat="43.75043" lon="7.05496">
        <ele>972</ele>
        <time>2015-11-24T01:22:34Z</time>
      </trkpt>
      <trkpt lat="43.75023" lon="7.05468">
        <ele>973</ele>
        <time>2015-11-24T01:24:34Z</time>
      </trkpt>
      <trkpt lat="43.74949" lon="7.05393">
        <ele>976</ele>
        <time>2015-11-24T01:26:34Z</time>
      </trkpt>
      <trkpt lat="43.74862" lon="7.0532">
        <ele>983</ele>
        <time>2015-11-24T01:28:34Z</time>
      </trkpt>
      <trkpt lat="43.7482" lon="7.0531">
        <ele>988</ele>
        <time>2015-11-24T01:30:34Z</time>
      </trkpt>
      <trkpt lat="43.74772" lon="7.05267">
        <ele>996</ele>
        <time>2015-11-24T01:32:34Z</time>
      </trkpt>
      <trkpt lat="43.74741" lon="7.05211">
        <ele>1004</ele>
        <time>2015-11-24T01:34:34Z</time>
      </trkpt>
      <trkpt lat="43.74747" lon="7.0517">
        <ele>1004</ele>
        <time>2015-11-24T01:36:34Z</time>
      </trkpt>
      <trkpt lat="43.74701" lon="7.05119">
        <ele>1014</ele>
        <time>2015-11-24T01:38:34Z</time>
      </trkpt>
      <trkpt lat="43.74623" lon="7.05011">
        <ele>1028</ele>
        <time>2015-11-24T01:40:34Z</time>
      </trkpt>
      <trkpt lat="43.74558" lon="7.05001">
        <ele>1030</ele>
        <time>2015-11-24T01:42:34Z</time>
      </trkpt>
      <trkpt lat="43.74518" lon="7.04999">
        <ele>1031</ele>
        <time>2015-11-24T01:44:34Z</time>
      </trkpt>
      <trkpt lat="43.74476" lon="7.05014">
        <ele>1029</ele>
        <time>2015-11-24T01:46:34Z</time>
      </trkpt>
      <trkpt lat="43.74465" lon="7.04975">
        <ele>1031</ele>
        <time>2015-11-24T01:48:34Z</time>
      </trkpt>
      <trkpt lat="43.7434" lon="7.04992">
        <ele>1026</ele>
        <time>2015-11-24T01:50:34Z</time>
      </trkpt>
      <trkpt lat="43.7431" lon="7.04981">
        <ele>1030</ele>
        <time>2015-11-24T01:52:34Z</time>
      </trkpt>
      <trkpt lat="43.74274" lon="7.0505">
        <ele>1023</ele>
        <time>2015-11-24T01:54:34Z</time>
      </trkpt>
      <trkpt lat="43.7418" lon="7.05087">
        <ele>1032</ele>
        <time>2015-11-24T01:56:34Z</time>
      </trkpt>
      <trkpt lat="43.74119" lon="7.05104">
        <ele>1034</ele>
        <time>2015-11-24T01:58:34Z</time>
      </trkpt>
      <trkpt lat="43.74087" lon="7.05147">
        <ele>1036</ele>
        <time>2015-11-24T02:00:34Z</time>
      </trkpt>
      <trkpt lat="43.74019" lon="7.05114">
        <ele>1029</ele>
        <time>2015-11-24T02:02:34Z</time>
      </trkpt>
      <trkpt lat="43.73992" lon="7.05089">
        <ele>1023</ele>
        <time>2015-11-24T02:04:34Z</time>
      </trkpt>
      <trkpt lat="43.73978" lon="7.05153">
        <ele>1021</ele>
        <time>2015-11-24T02:06:34Z</time>
      </trkpt>
      <trkpt lat="43.73947" lon="7.05207">
        <ele>1014</ele>
        <time>2015-11-24T02:08:34Z</time>
      </trkpt>
      <trkpt lat="43.73935" lon="7.05273">
        <ele>1016</ele>
        <time>2015-11-24T02:10:34Z</time>
      </trkpt>
      <trkpt lat="43.73875" lon="7.05421">
        <ele>985</ele>
        <time>2015-11-24T02:12:34Z</time>
      </trkpt>
      <trkpt lat="43.73837" lon="7.05563">
        <ele>977</ele>
        <time>2015-11-24T02:14:34Z</time>
      </trkpt>
      <trkpt lat="43.73825" lon="7.05614">
        <ele>974</ele>
        <time>2015-11-24T02:16:34Z</time>
      </trkpt>
      <trkpt lat="43.73823" lon="7.05685">
        <ele>974</ele>
        <time>2015-11-24T02:18:34Z</time>
      </trkpt>
      <trkpt lat="43.73783" lon="7.0579">
        <ele>970</ele>
        <time>2015-11-24T02:20:34Z</time>
      </trkpt>
      <trkpt lat="43.73774" lon="7.05865">
        <ele>979</ele>
        <time>2015-11-24T02:22:34Z</time>
      </trkpt>
      <trkpt lat="43.7374" lon="7.05947">
        <ele>988</ele>
        <time>2015-11-24T02:24:34Z</time>
      </trkpt>
      <trkpt lat="43.73732" lon="7.06078">
        <ele>994</ele>
        <time>2015-11-24T02:26:34Z</time>
      </trkpt>
      <trkpt lat="43.73752" lon="7.06174">
        <ele>1000</ele>
        <time>2015-11-24T02:28:34Z</time>
      </trkpt>
      <trkpt lat="43.73831" lon="7.06385">
        <ele>1013</ele>
        <time>2015-11-24T02:30:34Z</time>
      </trkpt>
      <trkpt lat="43.7376" lon="7.06196">
        <ele>1001</ele>
        <time>2015-11-24T02:32:34Z</time>
      </trkpt>
      <trkpt lat="43.73743" lon="7.06157">
        <ele>997</ele>
        <time>2015-11-24T02:34:34Z</time>
      </trkpt>
      <trkpt lat="43.73729" lon="7.06061">
        <ele>993</ele>
        <time>2015-11-24T02:36:34Z</time>
      </trkpt>
      <trkpt lat="43.73733" lon="7.05964">
        <ele>988</ele>
        <time>2015-11-24T02:38:34Z</time>
      </trkpt>
      <trkpt lat="43.73763" lon="7.05885">
        <ele>983</ele>
        <time>2015-11-24T02:40:34Z</time>
      </trkpt>
      <trkpt lat="43.73778" lon="7.05842">
        <ele>976</ele>
        <time>2015-11-24T02:42:34Z</time>
      </trkpt>
      <trkpt lat="43.7378" lon="7.05812">
        <ele>972</ele>
        <time>2015-11-24T02:44:34Z</time>
      </trkpt>
      <trkpt lat="43.73791" lon="7.05765">
        <ele>969</ele>
        <time>2015-11-24T02:46:34Z</time>
      </trkpt>
      <trkpt lat="43.73819" lon="7.05702">
        <ele>973</ele>
        <time>2015-11-24T02:48:34Z</time>
      </trkpt>
      <trkpt lat="43.73826" lon="7.05657">
        <ele>975</ele>
        <time>2015-11-24T02:50:34Z</time>
      </trkpt>
      <trkpt lat="43.73826" lon="7.05591">
        <ele>974</ele>
        <time>2015-11-24T02:52:34Z</time>
      </trkpt>
      <trkpt lat="43.73844" lon="7.05537">
        <ele>977</ele>
        <time>2015-11-24T02:54:34Z</time>
      </trkpt>
      <trkpt lat="43.73882" lon="7.054">
        <ele>988</ele>
        <time>2015-11-24T02:56:34Z</time>
      </trkpt>
      <trkpt lat="43.73932" lon="7.0529">
        <ele>1015</ele>
        <time>2015-11-24T02:58:34Z</time>
      </trkpt>
      <trkpt lat="43.73941" lon="7.05254">
        <ele>1018</ele>
        <time>2015-11-24T03:00:34Z</time>
      </trkpt>
      <trkpt lat="43.7394" lon="7.05224">
        <ele>1014</ele>
        <time>2015-11-24T03:02:34Z</time>
      </trkpt>
      <trkpt lat="43.73958" lon="7.05187">
        <ele>1016</ele>
        <time>2015-11-24T03:04:34Z</time>
      </trkpt>
      <trkpt lat="43.73986" lon="7.05134">
        <ele>1023</ele>
        <time>2015-11-24T03:06:34Z</time>
      </trkpt>
      <trkpt lat="43.73991" lon="7.05097">
        <ele>1023</ele>
        <time>2015-11-24T03:08:34Z</time>
      </trkpt>
      <trkpt lat="43.73992" lon="7.05077">
        <ele>1023</ele>
        <time>2015-11-24T03:10:34Z</time>
      </trkpt>
      <trkpt lat="43.73976" lon="7.05079">
        <ele>1018</ele>
        <time>2015-11-24T03:12:34Z</time>
      </trkpt>
      <trkpt lat="43.73971" lon="7.0509">
        <ele>1016</ele>
        <time>2015-11-24T03:14:34Z</time>
      </trkpt>
      <trkpt lat="43.73944" lon="7.05069">
        <ele>1010</ele>
        <time>2015-11-24T03:16:34Z</time>
      </trkpt>
      <trkpt lat="43.73915" lon="7.05059">
        <ele>1004</ele>
        <time>2015-11-24T03:18:34Z</time>
      </trkpt>
      <trkpt lat="43.73885" lon="7.05059">
        <ele>991</ele>
        <time>2015-11-24T03:20:34Z</time>
      </trkpt>
      <trkpt lat="43.73854" lon="7.04999">
        <ele>992</ele>
        <time>2015-11-24T03:22:34Z</time>
      </trkpt>
      <trkpt lat="43.7382" lon="7.04981">
        <ele>983</ele>
        <time>2015-11-24T03:24:34Z</time>
      </trkpt>
      <trkpt lat="43.73809" lon="7.04966">
        <ele>982</ele>
        <time>2015-11-24T03:26:34Z</time>
      </trkpt>
      <trkpt lat="43.73774" lon="7.04966">
        <ele>969</ele>
        <time>2015-11-24T03:28:34Z</time>
      </trkpt>
      <trkpt lat="43.73747" lon="7.04958">
        <ele>960</ele>
        <time>2015-11-24T03:30:34Z</time>
      </trkpt>
      <trkpt lat="43.73737" lon="7.04973">
        <ele>953</ele>
        <time>2015-11-24T03:32:34Z</time>
      </trkpt>
      <trkpt lat="43.73723" lon="7.0496">
        <ele>950</ele>
        <time>2015-11-24T03:34:34Z</time>
      </trkpt>
      <trkpt lat="43.7372" lon="7.04972">
        <ele>946</ele>
        <time>2015-11-24T03:36:34Z</time>
      </trkpt>
      <trkpt lat="43.73712" lon="7.04972">
        <ele>943</ele>
        <time>2015-11-24T03:38:34Z</time>
      </trkpt>
      <trkpt lat="43.73712" lon="7.04982">
        <ele>941</ele>
        <time>2015-11-24T03:40:34Z</time>
      </trkpt>
      <trkpt lat="43.73699" lon="7.04984">
        <ele>935</ele>
        <time>2015-11-24T03:42:34Z</time>
      </trkpt>
      <trkpt lat="43.7369" lon="7.05007">
        <ele>927</ele>
        <time>2015-11-24T03:44:34Z</time>
      </trkpt>
      <trkpt lat="43.73678" lon="7.0499">
        <ele>926</ele>
        <time>2015-11-24T03:46:34Z</time>
      </trkpt>
      <trkpt lat="43.73671" lon="7.05005">
        <ele>920</ele>
        <time>2015-11-24T03:48:34Z</time>
      </trkpt>
      <trkpt lat="43.73656" lon="7.04996">
        <ele>915</ele>
        <time>2015-11-24T03:50:34Z</time>
      </trkpt>
      <trkpt lat="43.73656" lon="7.05022">
        <ele>910</ele>
        <time>2015-11-24T03:52:34Z</time>
      </trkpt>
      <trkpt lat="43.73659" lon="7.05022">
        <ele>911</ele>
        <time>2015-11-24T03:54:34Z</time>
      </trkpt>
      <trkpt lat="43.73662" lon="7.05022">
        <ele>913</ele>
        <time>2015-11-24T03:56:34Z</time>
      </trkpt>
      <trkpt lat="43.73647" lon="7.0502">
        <ele>907</ele>
        <time>2015-11-24T03:58:34Z</time>
      </trkpt>
      <trkpt lat="43.73644" lon="7.05029">
        <ele>904</ele>
        <time>2015-11-24T04:00:34Z</time>
      </trkpt>
      <trkpt lat="43.73639" lon="7.05069">
        <ele>895</ele>
        <time>2015-11-24T04:02:34Z</time>
      </trkpt>
      <trkpt lat="43.73628" lon="7.05074">
        <ele>889</ele>
        <time>2015-11-24T04:04:34Z</time>
      </trkpt>
      <trkpt lat="43.73648" lon="7.05144">
        <ele>883</ele>
        <time>2015-11-24T04:06:34Z</time>
      </trkpt>
      <trkpt lat="43.73659" lon="7.05232">
        <ele>872</ele>
        <time>2015-11-24T04:08:34Z</time>
      </trkpt>
      <trkpt lat="43.73588" lon="7.05293">
        <ele>845</ele>
        <time>2015-11-24T04:10:34Z</time>
      </trkpt>
      <trkpt lat="43.73577" lon="7.05333">
        <ele>839</ele>
        <time>2015-11-24T04:12:34Z</time>
      </trkpt>
      <trkpt lat="43.73544" lon="7.05389">
        <ele>831</ele>
        <time>2015-11-24T04:14:34Z</time>
      </trkpt>
      <trkpt lat="43.73481" lon="7.05441">
        <ele>818</ele>
        <time>2015-11-24T04:16:34Z</time>
      </trkpt>
      <trkpt lat="43.73433" lon="7.05486">
        <ele>806</ele>
        <time>2015-11-24T04:18:34Z</time>
      </trkpt>
      <trkpt lat="43.73402" lon="7.05552">
        <ele>805</ele>
        <time>2015-11-24T04:20:34Z</time>
      </trkpt>
      <trkpt lat="43.73363" lon="7.05554">
        <ele>801</ele>
        <time>2015-11-24T04:22:34Z</time>
      </trkpt>
      <trkpt lat="43.73349" lon="7.05509">
        <ele>795</ele>
        <time>2015-11-24T04:24:34Z</time>
      </trkpt>
      <trkpt lat="43.73318" lon="7.05535">
        <ele>792</ele>
        <time>2015-11-24T04:26:34Z</time>
      </trkpt>
      <trkpt lat="43.73244" lon="7.05541">
        <ele>772</ele>
        <time>2015-11-24T04:28:34Z</time>
      </trkpt>
      <trkpt lat="43.73203" lon="7.05647">
        <ele>773</ele>
        <time>2015-11-24T04:30:34Z</time>
      </trkpt>
      <trkpt lat="43.73133" lon="7.05685">
        <ele>755</ele>
        <time>2015-11-24T04:32:34Z</time>
      </trkpt>
      <trkpt lat="43.7307" lon="7.05765">
        <ele>744</ele>
        <time>2015-11-24T04:34:34Z</time>
      </trkpt>
      <trkpt lat="43.73067" lon="7.05711">
        <ele>735</ele>
        <time>2015-11-24T04:36:34Z</time>
      </trkpt>
      <trkpt lat="43.73033" lon="7.05754">
        <ele>728</ele>
        <time>2015-11-24T04:38:34Z</time>
      </trkpt>
      <trkpt lat="43.73019" lon="7.05717">
        <ele>717</ele>
        <time>2015-11-24T04:40:34Z</time>
      </trkpt>
      <trkpt lat="43.73039" lon="7.05659">
        <ele>714</ele>
        <time>2015-11-24T04:42:34Z</time>
      </trkpt>
      <trkpt lat="43.73098" lon="7.0561">
        <ele>723</ele>
        <time>2015-11-24T04:44:34Z</time>
      </trkpt>
      <trkpt lat="43.7314" lon="7.05522">
        <ele>721</ele>
        <time>2015-11-24T04:46:34Z</time>
      </trkpt>
      <trkpt lat="43.73085" lon="7.05516">
        <ele>695</ele>
        <time>2015-11-24T04:48:34Z</time>
      </trkpt>
      <trkpt lat="43.73109" lon="7.05445">
        <ele>692</ele>
        <time>2015-11-24T04:50:34Z</time>
      </trkpt>
      <trkpt lat="43.73002" lon="7.05516">
        <ele>670</ele>
        <time>2015-11-24T04:52:34Z</time>
      </trkpt>
      <trkpt lat="43.73" lon="7.05471">
        <ele>663</ele>
        <time>2015-11-24T04:54:34Z</time>
      </trkpt>
      <trkpt lat="43.72952" lon="7.05514">
        <ele>657</ele>
        <time>2015-11-24T04:56:34Z</time>
      </trkpt>
      <trkpt lat="43.72862" lon="7.05509">
        <ele>638</ele>
        <time>2015-11-24T04:58:34Z</time>
      </trkpt>
      <trkpt lat="43.72814" lon="7.05589">
        <ele>632</ele>
        <time>2015-11-24T05:00:34Z</time>
      </trkpt>
      <trkpt lat="43.72806" lon="7.05522">
        <ele>629</ele>
        <time>2015-11-24T05:02:34Z</time>
      </trkpt>
      <trkpt lat="43.72747" lon="7.05537">
        <ele>620</ele>
        <time>2015-11-24T05:04:34Z</time>
      </trkpt>
      <trkpt lat="43.72715" lon="7.05524">
        <ele>620</ele>
        <time>2015-11-24T05:06:34Z</time>
      </trkpt>
      <trkpt lat="43.7264" lon="7.05569">
        <ele>613</ele>
        <time>2015-11-24T05:08:34Z</time>
      </trkpt>
      <trkpt lat="43.72543" lon="7.05625">
        <ele>605</ele>
        <time>2015-11-24T05:10:34Z</time>
      </trkpt>
      <trkpt lat="43.72558" lon="7.05657">
        <ele>601</ele>
        <time>2015-11-24T05:12:34Z</time>
      </trkpt>
      <trkpt lat="43.72617" lon="7.05647">
        <ele>606</ele>
        <time>2015-11-24T05:14:34Z</time>
      </trkpt>
      <trkpt lat="43.72637" lon="7.05672">
        <ele>606</ele>
        <time>2015-11-24T05:16:34Z</time>
      </trkpt>
      <trkpt lat="43.72662" lon="7.05814">
        <ele>605</ele>
        <time>2015-11-24T05:18:34Z</time>
      </trkpt>
      <trkpt lat="43.72688" lon="7.05857">
        <ele>606</ele>
        <time>2015-11-24T05:20:34Z</time>
      </trkpt>
      <trkpt lat="43.72713" lon="7.05956">
        <ele>598</ele>
        <time>2015-11-24T05:22:34Z</time>
      </trkpt>
      <trkpt lat="43.72701" lon="7.06091">
        <ele>582</ele>
        <time>2015-11-24T05:24:34Z</time>
      </trkpt>
      <trkpt lat="43.72733" lon="7.0614">
        <ele>578</ele>
        <time>2015-11-24T05:26:34Z</time>
      </trkpt>
      <trkpt lat="43.72761" lon="7.06147">
        <ele>583</ele>
        <time>2015-11-24T05:28:34Z</time>
      </trkpt>
      <trkpt lat="43.72777" lon="7.0634">
        <ele>581</ele>
        <time>2015-11-24T05:30:34Z</time>
      </trkpt>
      <trkpt lat="43.72761" lon="7.06357">
        <ele>575</ele>
        <time>2015-11-24T05:32:34Z</time>
      </trkpt>
      <trkpt lat="43.72763" lon="7.06441">
        <ele>579</ele>
        <time>2015-11-24T05:34:34Z</time>
      </trkpt>
      <trkpt lat="43.72721" lon="7.06528">
        <ele>569</ele>
        <time>2015-11-24T05:36:34Z</time>
      </trkpt>
      <trkpt lat="43.72713" lon="7.06709">
        <ele>556</ele>
        <time>2015-11-24T05:38:34Z</time>
      </trkpt>
      <trkpt lat="43.7273" lon="7.06788">
        <ele>555</ele>
        <time>2015-11-24T05:40:34Z</time>
      </trkpt>
      <trkpt lat="43.72709" lon="7.06844">
        <ele>546</ele>
        <time>2015-11-24T05:42:34Z</time>
      </trkpt>
      <trkpt lat="43.72674" lon="7.06846">
        <ele>534</ele>
        <time>2015-11-24T05:44:34Z</time>
      </trkpt>
      <trkpt lat="43.7267" lon="7.06872">
        <ele>535</ele>
        <time>2015-11-24T05:46:34Z</time>
      </trkpt>
      <trkpt lat="43.72648" lon="7.06855">
        <ele>528</ele>
        <time>2015-11-24T05:48:34Z</time>
      </trkpt>
      <trkpt lat="43.72629" lon="7.06825">
        <ele>522</ele>
        <time>2015-11-24T05:50:34Z</time>
      </trkpt>
      <trkpt lat="43.72589" lon="7.0682">
        <ele>513</ele>
        <time>2015-11-24T05:52:34Z</time>
      </trkpt>
      <trkpt lat="43.72516" lon="7.06747">
        <ele>499</ele>
        <time>2015-11-24T05:54:34Z</time>
      </trkpt>
      <trkpt lat="43.72403" lon="7.06732">
        <ele>472</ele>
        <time>2015-11-24T05:56:34Z</time>
      </trkpt>
      <trkpt lat="43.72313" lon="7.06743">
        <ele>460</ele>
        <time>2015-11-24T05:58:34Z</time>
      </trkpt>
      <trkpt lat="43.72217" lon="7.06728">
        <ele>446</ele>
        <time>2015-11-24T06:00:34Z</time>
      </trkpt>
      <trkpt lat="43.72133" lon="7.06685">
        <ele>436</ele>
        <time>2015-11-24T06:02:34Z</time>
      </trkpt>
      <trkpt lat="43.72108" lon="7.06678">
        <ele>434</ele>
        <time>2015-11-24T06:04:34Z</time>
      </trkpt>
      <trkpt lat="43.72035" lon="7.06678">
        <ele>427</ele>
        <time>2015-11-24T06:06:34Z</time>
      </trkpt>
      <trkpt lat="43.72019" lon="7.06671">
        <ele>425</ele>
        <time>2015-11-24T06:08:34Z</time>
      </trkpt>
      <trkpt lat="43.71963" lon="7.06621">
        <ele>421</ele>
        <time>2015-11-24T06:10:34Z</time>
      </trkpt>
      <trkpt lat="43.71959" lon="7.06604">
        <ele>420</ele>
        <time>2015-11-24T06:12:34Z</time>
      </trkpt>
      <trkpt lat="43.71955" lon="7.06541">
        <ele>417</ele>
        <time>2015-11-24T06:14:34Z</time>
      </trkpt>
      <trkpt lat="43.71936" lon="7.06495">
        <ele>413</ele>
        <time>2015-11-24T06:16:34Z</time>
      </trkpt>
      <trkpt lat="43.71909" lon="7.06416">
        <ele>408</ele>
        <time>2015-11-24T06:18:34Z</time>
      </trkpt>
      <trkpt lat="43.71868" lon="7.06319">
        <ele>404</ele>
        <time>2015-11-24T06:20:34Z</time>
      </trkpt>
      <trkpt lat="43.71855" lon="7.06314">
        <ele>403</ele>
        <time>2015-11-24T06:22:34Z</time>
      </trkpt>
      <trkpt lat="43.71839" lon="7.06317">
        <ele>403</ele>
        <time>2015-11-24T06:24:34Z</time>
      </trkpt>
      <trkpt lat="43.7183" lon="7.06303">
        <ele>403</ele>
        <time>2015-11-24T06:26:34Z</time>
      </trkpt>
      <trkpt lat="43.71834" lon="7.06265">
        <ele>404</ele>
        <time>2015-11-24T06:28:34Z</time>
      </trkpt>
      <trkpt lat="43.71764" lon="7.06118">
        <ele>406</ele>
        <time>2015-11-24T06:30:34Z</time>
      </trkpt>
      <trkpt lat="43.71716" lon="7.05998">
        <ele>407</ele>
        <time>2015-11-24T06:32:34Z</time>
      </trkpt>
      <trkpt lat="43.71692" lon="7.05885">
        <ele>413</ele>
        <time>2015-11-24T06:34:34Z</time>
      </trkpt>
      <trkpt lat="43.71682" lon="7.05879">
        <ele>412</ele>
        <time>2015-11-24T06:36:34Z</time>
      </trkpt>
      <trkpt lat="43.71642" lon="7.05873">
        <ele>408</ele>
        <time>2015-11-24T06:38:34Z</time>
      </trkpt>
    </trkseg>
  </trk>
</gpx>